Terminal Aerodrome Forecast
Issued by NWS

Home | Current Version | Previous Version | Text Only | Print | Product List | Glossary On
Versions: 1 2 3 4 5 6 7 8 9 10 11 12 13 14 15 16
000
FTUS42 KGSP 022332
TAFAND
TAF
KAND 022332Z 0300/0324 10004KT P6SM FEW080
     FM031000 00000KT 5SM BR SCT250
     FM031200 VRB04KT P6SM SCT250
     FM031700 25006KT P6SM FEW040 SCT070=

USA.gov is the U.S. government's official web portal to all federal, state and local government web resources and services.